sensor_id;sensor_type;location;lat;lon;timestamp;temperature;humidity
51637;DHT22;37713;53.254;6.460;2023-01-01T00:00:47;12.90;99.90
51637;DHT22;37713;53.254;6.460;2023-01-01T00:03:13;12.90;99.90
51637;DHT22;37713;53.254;6.460;2023-01-01T00:05:39;12.90;99.90
51637;DHT22;37713;53.254;6.460;2023-01-01T00:08:05;12.90;99.90
51637;DHT22;37713;53.254;6.460;2023-01-01T00:10:31;12.90;99.90
51637;DHT22;37713;53.254;6.460;2023-01-01T00:12:58;13.00;99.90
51637;DHT22;37713;53.254;6.460;2023-01-01T00:15:26;13.00;99.90
51637;DHT22;37713;53.254;6.460;2023-01-01T00:17:52;13.00;99.90
51637;DHT22;37713;53.254;6.460;2023-01-01T00:20:18;13.00;99.90
51637;DHT22;37713;53.254;6.460;2023-01-01T00:22:44;13.00;99.90
51637;DHT22;37713;53.254;6.460;2023-01-01T00:25:11;13.00;99.90
51637;DHT22;37713;53.254;6.460;2023-01-01T00:27:40;13.00;99.90
51637;DHT22;37713;53.254;6.460;2023-01-01T00:30:07;12.90;99.90
51637;DHT22;37713;53.254;6.460;2023-01-01T00:32:34;13.00;99.90
51637;DHT22;37713;53.254;6.460;2023-01-01T00:35:00;12.90;99.90
51637;DHT22;37713;53.254;6.460;2023-01-01T00:37:27;12.90;99.90
51637;DHT22;37713;53.254;6.460;2023-01-01T00:39:53;12.90;99.90
51637;DHT22;37713;53.254;6.460;2023-01-01T00:42:19;12.90;99.90
51637;DHT22;37713;53.254;6.460;2023-01-01T00:44:45;12.90;99.90
51637;DHT22;37713;53.254;6.460;2023-01-01T00:47:11;12.90;99.90
51637;DHT22;37713;53.254;6.460;2023-01-01T00:49:37;12.90;99.90
51637;DHT22;37713;53.254;6.460;2023-01-01T00:52:03;12.90;99.90
51637;DHT22;37713;53.254;6.460;2023-01-01T00:54:29;12.90;99.90
51637;DHT22;37713;53.254;6.460;2023-01-01T00:56:55;12.90;99.90
51637;DHT22;37713;53.254;6.460;2023-01-01T00:59:22;12.90;99.90
51637;DHT22;37713;53.254;6.460;2023-01-01T01:01:47;12.90;99.90
51637;DHT22;37713;53.254;6.460;2023-01-01T01:04:13;12.90;99.90
51637;DHT22;37713;53.254;6.460;2023-01-01T01:06:39;12.80;99.90
51637;DHT22;37713;53.254;6.460;2023-01-01T01:09:05;12.70;99.90
51637;DHT22;37713;53.254;6.460;2023-01-01T01:11:32;12.60;99.90
51637;DHT22;37713;53.254;6.460;2023-01-01T01:13:58;12.50;99.90
51637;DHT22;37713;53.254;6.460;2023-01-01T01:16:29;12.50;99.90
51637;DHT22;37713;53.254;6.460;2023-01-01T01:18:57;12.50;99.90
51637;DHT22;37713;53.254;6.460;2023-01-01T01:21:26;12.40;99.90
51637;DHT22;37713;53.254;6.460;2023-01-01T01:23:53;12.40;99.90
51637;DHT22;37713;53.254;6.460;2023-01-01T01:26:25;12.50;99.90
51637;DHT22;37713;53.254;6.460;2023-01-01T01:28:52;12.50;99.90
51637;DHT22;37713;53.254;6.460;2023-01-01T01:31:20;12.50;99.90
51637;DHT22;37713;53.254;6.460;2023-01-01T01:33:47;12.50;99.90
51637;DHT22;37713;53.254;6.460;2023-01-01T01:36:14;12.50;99.90
51637;DHT22;37713;53.254;6.460;2023-01-01T01:38:40;12.40;99.90
51637;DHT22;37713;53.254;6.460;2023-01-01T01:41:07;12.40;99.90
51637;DHT22;37713;53.254;6.460;2023-01-01T01:46:05;12.20;99.90
51637;DHT22;37713;53.254;6.460;2023-01-01T01:48:41;12.20;99.90
51637;DHT22;37713;53.254;6.460;2023-01-01T01:51:09;12.10;99.90
51637;DHT22;37713;53.254;6.460;2023-01-01T01:53:39;12.00;99.90
51637;DHT22;37713;53.254;6.460;2023-01-01T01:56:09;12.00;99.90
51637;DHT22;37713;53.254;6.460;2023-01-01T01:58:38;12.00;99.90
51637;DHT22;37713;53.254;6.460;2023-01-01T02:01:04;11.90;99.90
51637;DHT22;37713;53.254;6.460;2023-01-01T02:06:08;11.90;99.90
51637;DHT22;37713;53.254;6.460;2023-01-01T02:08:35;11.90;99.90
51637;DHT22;37713;53.254;6.460;2023-01-01T02:11:01;11.90;99.90
51637;DHT22;37713;53.254;6.460;2023-01-01T02:13:27;11.90;99.90
51637;DHT22;37713;53.254;6.460;2023-01-01T02:16:07;11.90;99.90
51637;DHT22;37713;53.254;6.460;2023-01-01T02:18:57;11.90;99.90
51637;DHT22;37713;53.254;6.460;2023-01-01T02:21:29;11.90;99.90
51637;DHT22;37713;53.254;6.460;2023-01-01T02:26:39;11.80;99.90
51637;DHT22;37713;53.254;6.460;2023-01-01T02:29:31;11.90;99.90
51637;DHT22;37713;53.254;6.460;2023-01-01T02:32:06;11.80;99.90
51637;DHT22;37713;53.254;6.460;2023-01-01T02:35:02;11.80;99.90
51637;DHT22;37713;53.254;6.460;2023-01-01T02:37:53;11.80;99.90
51637;DHT22;37713;53.254;6.460;2023-01-01T02:40:22;11.80;99.90
51637;DHT22;37713;53.254;6.460;2023-01-01T02:42:50;11.80;99.90
51637;DHT22;37713;53.254;6.460;2023-01-01T02:45:16;11.80;99.90
51637;DHT22;37713;53.254;6.460;2023-01-01T02:47:42;11.80;99.90
51637;DHT22;37713;53.254;6.460;2023-01-01T02:50:15;11.80;99.90
51637;DHT22;37713;53.254;6.460;2023-01-01T02:52:51;11.80;99.90
51637;DHT22;37713;53.254;6.460;2023-01-01T02:55:37;11.80;99.90
51637;DHT22;37713;53.254;6.460;2023-01-01T03:01:28;11.80;99.90
51637;DHT22;37713;53.254;6.460;2023-01-01T03:04:01;11.70;99.90
51637;DHT22;37713;53.254;6.460;2023-01-01T03:06:32;11.70;99.90
51637;DHT22;37713;53.254;6.460;2023-01-01T03:09:37;11.70;99.90
51637;DHT22;37713;53.254;6.460;2023-01-01T03:18:05;11.60;99.90
51637;DHT22;37713;53.254;6.460;2023-01-01T03:20:37;11.50;99.90
51637;DHT22;37713;53.254;6.460;2023-01-01T03:23:08;11.50;99.90
51637;DHT22;37713;53.254;6.460;2023-01-01T03:25:39;11.50;99.90
51637;DHT22;37713;53.254;6.460;2023-01-01T03:28:16;11.60;99.90
51637;DHT22;37713;53.254;6.460;2023-01-01T03:30:45;11.50;99.90
51637;DHT22;37713;53.254;6.460;2023-01-01T03:33:21;11.60;99.90
51637;DHT22;37713;53.254;6.460;2023-01-01T03:35:58;11.60;99.90
51637;DHT22;37713;53.254;6.460;2023-01-01T03:38:37;11.50;99.90
51637;DHT22;37713;53.254;6.460;2023-01-01T03:44:08;11.50;99.90
51637;DHT22;37713;53.254;6.460;2023-01-01T03:46:36;11.50;99.90
51637;DHT22;37713;53.254;6.460;2023-01-01T03:49:05;11.50;99.90
51637;DHT22;37713;53.254;6.460;2023-01-01T04:00:19;11.40;99.90
51637;DHT22;37713;53.254;6.460;2023-01-01T04:02:54;11.40;99.90
51637;DHT22;37713;53.254;6.460;2023-01-01T04:05:21;11.30;99.90
51637;DHT22;37713;53.254;6.460;2023-01-01T04:07:49;11.40;99.90
51637;DHT22;37713;53.254;6.460;2023-01-01T04:10:16;11.40;99.90
51637;DHT22;37713;53.254;6.460;2023-01-01T04:15:14;11.30;99.90
51637;DHT22;37713;53.254;6.460;2023-01-01T04:17:40;11.30;99.90
51637;DHT22;37713;53.254;6.460;2023-01-01T04:20:06;11.30;99.90
51637;DHT22;37713;53.254;6.460;2023-01-01T04:22:34;11.30;99.90
51637;DHT22;37713;53.254;6.460;2023-01-01T04:25:00;11.30;99.90
51637;DHT22;37713;53.254;6.460;2023-01-01T04:27:26;11.30;99.90
51637;DHT22;37713;53.254;6.460;2023-01-01T04:29:52;11.40;99.90
51637;DHT22;37713;53.254;6.460;2023-01-01T04:32:18;11.40;99.90
51637;DHT22;37713;53.254;6.460;2023-01-01T04:34:43;11.40;99.90
51637;DHT22;37713;53.254;6.460;2023-01-01T04:37:09;11.40;99.90
51637;DHT22;37713;53.254;6.460;2023-01-01T04:39:35;11.40;99.90
51637;DHT22;37713;53.254;6.460;2023-01-01T04:42:01;11.50;99.90
51637;DHT22;37713;53.254;6.460;2023-01-01T04:44:27;11.40;99.90
51637;DHT22;37713;53.254;6.460;2023-01-01T04:46:53;11.40;99.90
51637;DHT22;37713;53.254;6.460;2023-01-01T04:49:18;11.50;99.90
51637;DHT22;37713;53.254;6.460;2023-01-01T04:51:44;11.50;99.90
51637;DHT22;37713;53.254;6.460;2023-01-01T04:54:10;11.40;99.90
51637;DHT22;37713;53.254;6.460;2023-01-01T04:56:36;11.50;99.90
51637;DHT22;37713;53.254;6.460;2023-01-01T04:59:02;11.40;99.90
51637;DHT22;37713;53.254;6.460;2023-01-01T05:01:28;11.40;99.90
51637;DHT22;37713;53.254;6.460;2023-01-01T05:03:56;11.40;99.90
51637;DHT22;37713;53.254;6.460;2023-01-01T05:06:22;11.40;99.90
51637;DHT22;37713;53.254;6.460;2023-01-01T05:08:49;11.40;99.90
51637;DHT22;37713;53.254;6.460;2023-01-01T05:11:18;11.40;99.90
51637;DHT22;37713;53.254;6.460;2023-01-01T05:13:46;11.40;99.90
51637;DHT22;37713;53.254;6.460;2023-01-01T05:16:15;11.40;99.90
51637;DHT22;37713;53.254;6.460;2023-01-01T05:18:42;11.30;99.90
51637;DHT22;37713;53.254;6.460;2023-01-01T05:21:11;11.30;99.90
51637;DHT22;37713;53.254;6.460;2023-01-01T05:23:37;11.30;99.90
51637;DHT22;37713;53.254;6.460;2023-01-01T05:26:13;11.30;99.90
51637;DHT22;37713;53.254;6.460;2023-01-01T05:28:39;11.30;99.90
51637;DHT22;37713;53.254;6.460;2023-01-01T05:31:11;11.30;99.90
51637;DHT22;37713;53.254;6.460;2023-01-01T05:33:37;11.30;99.90
51637;DHT22;37713;53.254;6.460;2023-01-01T05:36:04;11.30;99.90
51637;DHT22;37713;53.254;6.460;2023-01-01T05:38:31;11.30;99.90
51637;DHT22;37713;53.254;6.460;2023-01-01T05:40:57;11.30;99.90
51637;DHT22;37713;53.254;6.460;2023-01-01T05:43:23;11.30;99.90
51637;DHT22;37713;53.254;6.460;2023-01-01T05:45:57;11.20;99.90
51637;DHT22;37713;53.254;6.460;2023-01-01T05:48:23;11.20;99.90
51637;DHT22;37713;53.254;6.460;2023-01-01T05:50:49;11.20;99.90
51637;DHT22;37713;53.254;6.460;2023-01-01T05:53:15;11.20;99.90
51637;DHT22;37713;53.254;6.460;2023-01-01T05:55:41;11.20;99.90
51637;DHT22;37713;53.254;6.460;2023-01-01T05:58:07;11.20;99.90
51637;DHT22;37713;53.254;6.460;2023-01-01T06:00:33;11.10;99.90
51637;DHT22;37713;53.254;6.460;2023-01-01T06:02:59;11.10;99.90
51637;DHT22;37713;53.254;6.460;2023-01-01T06:05:25;11.10;99.90
51637;DHT22;37713;53.254;6.460;2023-01-01T06:07:50;11.00;99.90
51637;DHT22;37713;53.254;6.460;2023-01-01T06:10:16;11.00;99.90
51637;DHT22;37713;53.254;6.460;2023-01-01T06:12:42;11.00;99.90
51637;DHT22;37713;53.254;6.460;2023-01-01T06:15:08;10.90;99.90
51637;DHT22;37713;53.254;6.460;2023-01-01T06:17:34;10.80;99.90
51637;DHT22;37713;53.254;6.460;2023-01-01T06:20:00;10.80;99.90
51637;DHT22;37713;53.254;6.460;2023-01-01T06:22:26;10.80;99.90
51637;DHT22;37713;53.254;6.460;2023-01-01T06:24:52;10.70;99.90
51637;DHT22;37713;53.254;6.460;2023-01-01T06:27:18;10.70;99.90
51637;DHT22;37713;53.254;6.460;2023-01-01T06:29:44;10.70;99.90
51637;DHT22;37713;53.254;6.460;2023-01-01T06:32:10;10.60;99.90
51637;DHT22;37713;53.254;6.460;2023-01-01T06:34:36;10.60;99.90
51637;DHT22;37713;53.254;6.460;2023-01-01T06:37:01;10.60;99.90
51637;DHT22;37713;53.254;6.460;2023-01-01T06:39:28;10.60;99.90
51637;DHT22;37713;53.254;6.460;2023-01-01T06:41:54;10.60;99.90
51637;DHT22;37713;53.254;6.460;2023-01-01T06:44:20;10.60;99.90
51637;DHT22;37713;53.254;6.460;2023-01-01T06:46:46;10.60;99.90
51637;DHT22;37713;53.254;6.460;2023-01-01T06:49:12;10.60;99.90
51637;DHT22;37713;53.254;6.460;2023-01-01T06:51:39;10.60;99.90
51637;DHT22;37713;53.254;6.460;2023-01-01T06:54:07;10.50;99.90
51637;DHT22;37713;53.254;6.460;2023-01-01T06:56:33;10.50;99.90
51637;DHT22;37713;53.254;6.460;2023-01-01T06:59:00;10.50;99.90
51637;DHT22;37713;53.254;6.460;2023-01-01T07:01:30;10.50;99.90
51637;DHT22;37713;53.254;6.460;2023-01-01T07:04:02;10.50;99.90
51637;DHT22;37713;53.254;6.460;2023-01-01T07:06:30;10.40;99.90
51637;DHT22;37713;53.254;6.460;2023-01-01T07:08:56;10.40;99.90
51637;DHT22;37713;53.254;6.460;2023-01-01T07:11:23;10.40;99.90
51637;DHT22;37713;53.254;6.460;2023-01-01T07:13:49;10.40;99.90
51637;DHT22;37713;53.254;6.460;2023-01-01T07:16:15;10.30;99.90
51637;DHT22;37713;53.254;6.460;2023-01-01T07:18:41;10.40;99.90
51637;DHT22;37713;53.254;6.460;2023-01-01T07:21:29;10.30;99.90
51637;DHT22;37713;53.254;6.460;2023-01-01T07:23:57;10.30;99.90
51637;DHT22;37713;53.254;6.460;2023-01-01T07:26:28;10.30;99.90
51637;DHT22;37713;53.254;6.460;2023-01-01T07:28:55;10.20;99.90
51637;DHT22;37713;53.254;6.460;2023-01-01T07:31:21;10.20;99.90
51637;DHT22;37713;53.254;6.460;2023-01-01T07:33:47;10.20;99.90
51637;DHT22;37713;53.254;6.460;2023-01-01T07:36:13;10.10;99.90
51637;DHT22;37713;53.254;6.460;2023-01-01T07:38:39;10.10;99.90
51637;DHT22;37713;53.254;6.460;2023-01-01T07:41:05;10.10;99.90
51637;DHT22;37713;53.254;6.460;2023-01-01T07:43:30;10.10;99.90
51637;DHT22;37713;53.254;6.460;2023-01-01T07:45:57;10.10;99.90
51637;DHT22;37713;53.254;6.460;2023-01-01T07:48:24;10.10;99.90
51637;DHT22;37713;53.254;6.460;2023-01-01T07:50:51;10.10;99.90
51637;DHT22;37713;53.254;6.460;2023-01-01T07:53:17;10.10;99.90
51637;DHT22;37713;53.254;6.460;2023-01-01T07:55:43;10.10;99.90
51637;DHT22;37713;53.254;6.460;2023-01-01T07:58:11;10.10;99.90
51637;DHT22;37713;53.254;6.460;2023-01-01T08:00:38;10.00;99.90
51637;DHT22;37713;53.254;6.460;2023-01-01T08:03:04;10.00;99.90
51637;DHT22;37713;53.254;6.460;2023-01-01T08:05:31;10.00;99.90
51637;DHT22;37713;53.254;6.460;2023-01-01T08:07:58;10.10;99.90
51637;DHT22;37713;53.254;6.460;2023-01-01T08:10:25;10.10;99.90
51637;DHT22;37713;53.254;6.460;2023-01-01T08:12:51;10.00;99.90
51637;DHT22;37713;53.254;6.460;2023-01-01T08:15:16;10.10;99.90
51637;DHT22;37713;53.254;6.460;2023-01-01T08:17:42;10.00;99.90
51637;DHT22;37713;53.254;6.460;2023-01-01T08:20:09;10.00;99.90
51637;DHT22;37713;53.254;6.460;2023-01-01T08:22:35;10.00;99.90
51637;DHT22;37713;53.254;6.460;2023-01-01T08:25:01;10.00;99.90
51637;DHT22;37713;53.254;6.460;2023-01-01T08:27:27;10.00;99.90
51637;DHT22;37713;53.254;6.460;2023-01-01T08:29:54;10.00;99.90
51637;DHT22;37713;53.254;6.460;2023-01-01T08:32:20;10.00;99.90
51637;DHT22;37713;53.254;6.460;2023-01-01T08:34:46;10.00;99.90
51637;DHT22;37713;53.254;6.460;2023-01-01T08:37:15;10.00;99.90
51637;DHT22;37713;53.254;6.460;2023-01-01T08:39:41;10.00;99.90
51637;DHT22;37713;53.254;6.460;2023-01-01T08:42:07;10.00;99.90
51637;DHT22;37713;53.254;6.460;2023-01-01T08:44:32;10.00;99.90
51637;DHT22;37713;53.254;6.460;2023-01-01T08:46:58;10.10;99.90
51637;DHT22;37713;53.254;6.460;2023-01-01T08:49:24;10.10;99.90
51637;DHT22;37713;53.254;6.460;2023-01-01T08:51:50;10.10;99.90
51637;DHT22;37713;53.254;6.460;2023-01-01T08:54:16;10.10;99.90
51637;DHT22;37713;53.254;6.460;2023-01-01T08:56:42;10.10;99.90
51637;DHT22;37713;53.254;6.460;2023-01-01T08:59:08;10.10;99.90
51637;DHT22;37713;53.254;6.460;2023-01-01T09:01:33;10.10;99.90
51637;DHT22;37713;53.254;6.460;2023-01-01T09:04:00;10.10;99.90
51637;DHT22;37713;53.254;6.460;2023-01-01T09:06:26;10.20;99.90
51637;DHT22;37713;53.254;6.460;2023-01-01T09:08:52;10.20;99.90
51637;DHT22;37713;53.254;6.460;2023-01-01T09:11:23;10.20;99.90
51637;DHT22;37713;53.254;6.460;2023-01-01T09:13:51;10.20;99.90
51637;DHT22;37713;53.254;6.460;2023-01-01T09:16:17;10.20;99.90
51637;DHT22;37713;53.254;6.460;2023-01-01T09:18:43;10.20;99.90
51637;DHT22;37713;53.254;6.460;2023-01-01T09:21:09;10.20;99.90
51637;DHT22;37713;53.254;6.460;2023-01-01T09:23:35;10.20;99.90
51637;DHT22;37713;53.254;6.460;2023-01-01T09:26:06;10.20;99.90
51637;DHT22;37713;53.254;6.460;2023-01-01T09:28:33;10.20;99.90
51637;DHT22;37713;53.254;6.460;2023-01-01T09:30:59;10.20;99.90
51637;DHT22;37713;53.254;6.460;2023-01-01T09:33:27;10.30;99.90
51637;DHT22;37713;53.254;6.460;2023-01-01T09:38:38;10.30;99.90
51637;DHT22;37713;53.254;6.460;2023-01-01T09:46:32;10.30;99.90
51637;DHT22;37713;53.254;6.460;2023-01-01T09:49:02;10.30;99.90
51637;DHT22;37713;53.254;6.460;2023-01-01T09:51:35;10.30;99.90
51637;DHT22;37713;53.254;6.460;2023-01-01T09:56:47;10.40;99.90
51637;DHT22;37713;53.254;6.460;2023-01-01T09:59:16;10.40;99.90
51637;DHT22;37713;53.254;6.460;2023-01-01T10:01:58;10.40;99.90
51637;DHT22;37713;53.254;6.460;2023-01-01T10:07:34;10.50;99.90
51637;DHT22;37713;53.254;6.460;2023-01-01T10:15:27;10.60;99.90
51637;DHT22;37713;53.254;6.460;2023-01-01T10:18:02;10.70;99.90
51637;DHT22;37713;53.254;6.460;2023-01-01T10:20:43;10.70;99.90
51637;DHT22;37713;53.254;6.460;2023-01-01T10:23:21;10.80;99.90
51637;DHT22;37713;53.254;6.460;2023-01-01T10:25:48;10.80;99.90
51637;DHT22;37713;53.254;6.460;2023-01-01T10:31:13;10.70;99.90
51637;DHT22;37713;53.254;6.460;2023-01-01T10:33:39;10.70;99.90
51637;DHT22;37713;53.254;6.460;2023-01-01T10:36:08;10.70;99.90
51637;DHT22;37713;53.254;6.460;2023-01-01T10:38:36;10.70;99.90
51637;DHT22;37713;53.254;6.460;2023-01-01T10:41:08;10.60;99.90
51637;DHT22;37713;53.254;6.460;2023-01-01T10:43:35;10.60;99.90
51637;DHT22;37713;53.254;6.460;2023-01-01T10:46:03;10.50;99.90
51637;DHT22;37713;53.254;6.460;2023-01-01T10:48:31;10.50;99.90
51637;DHT22;37713;53.254;6.460;2023-01-01T10:51:05;10.50;99.90
51637;DHT22;37713;53.254;6.460;2023-01-01T10:53:38;10.40;99.90
51637;DHT22;37713;53.254;6.460;2023-01-01T10:56:14;10.40;99.90
51637;DHT22;37713;53.254;6.460;2023-01-01T11:01:31;10.40;99.90
51637;DHT22;37713;53.254;6.460;2023-01-01T11:08:59;10.50;99.90
51637;DHT22;37713;53.254;6.460;2023-01-01T11:11:31;10.50;99.90
51637;DHT22;37713;53.254;6.460;2023-01-01T11:14:01;10.60;99.90
51637;DHT22;37713;53.254;6.460;2023-01-01T11:16:37;10.60;99.90
51637;DHT22;37713;53.254;6.460;2023-01-01T11:19:06;10.60;99.90
51637;DHT22;37713;53.254;6.460;2023-01-01T11:21:34;10.70;99.90
51637;DHT22;37713;53.254;6.460;2023-01-01T11:26:43;10.70;99.90
51637;DHT22;37713;53.254;6.460;2023-01-01T11:31:43;10.70;99.90
51637;DHT22;37713;53.254;6.460;2023-01-01T11:34:26;10.70;99.90
51637;DHT22;37713;53.254;6.460;2023-01-01T11:39:44;10.60;99.90
51637;DHT22;37713;53.254;6.460;2023-01-01T11:42:23;10.60;99.90
51637;DHT22;37713;53.254;6.460;2023-01-01T11:45:13;10.60;99.90
51637;DHT22;37713;53.254;6.460;2023-01-01T11:47:42;10.60;99.90
51637;DHT22;37713;53.254;6.460;2023-01-01T11:50:25;10.60;99.90
51637;DHT22;37713;53.254;6.460;2023-01-01T11:52:53;10.60;99.90
51637;DHT22;37713;53.254;6.460;2023-01-01T11:55:42;10.60;99.90
51637;DHT22;37713;53.254;6.460;2023-01-01T11:58:24;10.60;99.90
51637;DHT22;37713;53.254;6.460;2023-01-01T12:00:59;10.70;99.90
51637;DHT22;37713;53.254;6.460;2023-01-01T12:06:20;10.80;99.90
51637;DHT22;37713;53.254;6.460;2023-01-01T12:14:24;10.90;99.90
51637;DHT22;37713;53.254;6.460;2023-01-01T12:20:05;11.00;99.90
51637;DHT22;37713;53.254;6.460;2023-01-01T12:22:31;11.00;99.90
51637;DHT22;37713;53.254;6.460;2023-01-01T12:24:58;11.00;99.90
51637;DHT22;37713;53.254;6.460;2023-01-01T12:30:24;11.00;99.90
51637;DHT22;37713;53.254;6.460;2023-01-01T12:35:53;11.00;99.90
51637;DHT22;37713;53.254;6.460;2023-01-01T12:38:37;11.00;99.90
51637;DHT22;37713;53.254;6.460;2023-01-01T12:44:28;11.10;99.90
51637;DHT22;37713;53.254;6.460;2023-01-01T12:52:19;11.10;99.90
51637;DHT22;37713;53.254;6.460;2023-01-01T12:57:47;11.10;99.90
51637;DHT22;37713;53.254;6.460;2023-01-01T13:00:17;11.10;99.90
51637;DHT22;37713;53.254;6.460;2023-01-01T13:02:52;11.00;99.90
51637;DHT22;37713;53.254;6.460;2023-01-01T13:05:39;11.00;99.90
51637;DHT22;37713;53.254;6.460;2023-01-01T13:08:06;11.00;99.90
51637;DHT22;37713;53.254;6.460;2023-01-01T13:10:58;11.00;99.90
51637;DHT22;37713;53.254;6.460;2023-01-01T13:13:27;11.00;99.90
51637;DHT22;37713;53.254;6.460;2023-01-01T13:15:56;11.00;99.90
51637;DHT22;37713;53.254;6.460;2023-01-01T13:18:27;11.00;99.90
51637;DHT22;37713;53.254;6.460;2023-01-01T13:20:58;11.00;99.90
51637;DHT22;37713;53.254;6.460;2023-01-01T13:45:34;10.90;99.90
51637;DHT22;37713;53.254;6.460;2023-01-01T13:54:07;10.80;99.90
51637;DHT22;37713;53.254;6.460;2023-01-01T14:07:01;10.70;99.90
51637;DHT22;37713;53.254;6.460;2023-01-01T14:09:30;10.60;99.90
51637;DHT22;37713;53.254;6.460;2023-01-01T14:12:08;10.60;99.90
51637;DHT22;37713;53.254;6.460;2023-01-01T14:14:33;10.60;99.90
51637;DHT22;37713;53.254;6.460;2023-01-01T14:17:05;10.60;99.90
51637;DHT22;37713;53.254;6.460;2023-01-01T14:19:32;10.60;99.90
51637;DHT22;37713;53.254;6.460;2023-01-01T14:21:58;10.60;99.90
51637;DHT22;37713;53.254;6.460;2023-01-01T14:24:25;10.60;99.90
51637;DHT22;37713;53.254;6.460;2023-01-01T14:26:53;10.50;99.90
51637;DHT22;37713;53.254;6.460;2023-01-01T14:29:28;10.50;99.90
51637;DHT22;37713;53.254;6.460;2023-01-01T14:31:57;10.50;99.90
51637;DHT22;37713;53.254;6.460;2023-01-01T14:34:30;10.40;99.90
51637;DHT22;37713;53.254;6.460;2023-01-01T14:36:58;10.40;99.90
51637;DHT22;37713;53.254;6.460;2023-01-01T14:41:52;10.30;99.90
51637;DHT22;37713;53.254;6.460;2023-01-01T14:44:21;10.30;99.90
51637;DHT22;37713;53.254;6.460;2023-01-01T14:46:51;10.20;99.90
51637;DHT22;37713;53.254;6.460;2023-01-01T14:49:28;10.20;99.90
51637;DHT22;37713;53.254;6.460;2023-01-01T14:52:08;10.20;99.90
51637;DHT22;37713;53.254;6.460;2023-01-01T14:54:41;10.10;99.90
51637;DHT22;37713;53.254;6.460;2023-01-01T14:57:15;10.10;99.90
51637;DHT22;37713;53.254;6.460;2023-01-01T14:59:47;10.10;99.90
51637;DHT22;37713;53.254;6.460;2023-01-01T15:02:20;10.00;99.90
51637;DHT22;37713;53.254;6.460;2023-01-01T15:04:47;10.00;99.90
51637;DHT22;37713;53.254;6.460;2023-01-01T15:09:47;9.90;99.90
51637;DHT22;37713;53.254;6.460;2023-01-01T15:12:13;9.90;99.90
51637;DHT22;37713;53.254;6.460;2023-01-01T15:14:46;9.90;99.90
51637;DHT22;37713;53.254;6.460;2023-01-01T15:17:14;9.90;99.90
51637;DHT22;37713;53.254;6.460;2023-01-01T15:19:43;9.90;99.90
51637;DHT22;37713;53.254;6.460;2023-01-01T15:24:50;9.80;99.90
51637;DHT22;37713;53.254;6.460;2023-01-01T15:27:28;9.70;99.90
51637;DHT22;37713;53.254;6.460;2023-01-01T15:29:55;9.70;99.90
51637;DHT22;37713;53.254;6.460;2023-01-01T15:32:28;9.60;99.90
51637;DHT22;37713;53.254;6.460;2023-01-01T15:34:56;9.60;99.90
51637;DHT22;37713;53.254;6.460;2023-01-01T15:53:13;9.50;99.90
51637;DHT22;37713;53.254;6.460;2023-01-01T15:55:43;9.40;99.90
51637;DHT22;37713;53.254;6.460;2023-01-01T15:59:03;9.40;99.90
51637;DHT22;37713;53.254;6.460;2023-01-01T16:01:06;9.40;99.90
51637;DHT22;37713;53.254;6.460;2023-01-01T16:03:34;9.40;99.90
51637;DHT22;37713;53.254;6.460;2023-01-01T16:06:02;9.40;99.90
51637;DHT22;37713;53.254;6.460;2023-01-01T16:08:27;9.40;99.90
51637;DHT22;37713;53.254;6.460;2023-01-01T16:10:53;9.40;99.90
51637;DHT22;37713;53.254;6.460;2023-01-01T16:13:19;9.30;99.90
51637;DHT22;37713;53.254;6.460;2023-01-01T16:15:56;9.30;99.90
51637;DHT22;37713;53.254;6.460;2023-01-01T16:18:27;9.30;99.90
51637;DHT22;37713;53.254;6.460;2023-01-01T16:20:54;9.30;99.90
51637;DHT22;37713;53.254;6.460;2023-01-01T16:23:20;9.20;99.90
51637;DHT22;37713;53.254;6.460;2023-01-01T16:25:46;9.20;99.90
51637;DHT22;37713;53.254;6.460;2023-01-01T16:28:13;9.20;99.90
51637;DHT22;37713;53.254;6.460;2023-01-01T16:30:39;9.20;99.90
51637;DHT22;37713;53.254;6.460;2023-01-01T16:33:41;9.20;99.90
51637;DHT22;37713;53.254;6.460;2023-01-01T16:36:00;9.20;99.90
51637;DHT22;37713;53.254;6.460;2023-01-01T16:38:26;9.20;99.90
51637;DHT22;37713;53.254;6.460;2023-01-01T16:40:51;9.30;99.90
51637;DHT22;37713;53.254;6.460;2023-01-01T16:43:17;9.20;99.90
51637;DHT22;37713;53.254;6.460;2023-01-01T16:45:43;9.30;99.90
51637;DHT22;37713;53.254;6.460;2023-01-01T16:48:09;9.30;99.90
51637;DHT22;37713;53.254;6.460;2023-01-01T16:50:35;9.20;99.90
51637;DHT22;37713;53.254;6.460;2023-01-01T16:53:01;9.30;99.90
51637;DHT22;37713;53.254;6.460;2023-01-01T16:55:27;9.30;99.90
51637;DHT22;37713;53.254;6.460;2023-01-01T16:57:53;9.30;99.90
51637;DHT22;37713;53.254;6.460;2023-01-01T17:00:19;9.30;99.90
51637;DHT22;37713;53.254;6.460;2023-01-01T17:02:48;9.30;99.90
51637;DHT22;37713;53.254;6.460;2023-01-01T17:05:14;9.30;99.90
51637;DHT22;37713;53.254;6.460;2023-01-01T17:07:40;9.30;99.90
51637;DHT22;37713;53.254;6.460;2023-01-01T17:10:06;9.30;99.90
51637;DHT22;37713;53.254;6.460;2023-01-01T17:12:34;9.30;99.90
51637;DHT22;37713;53.254;6.460;2023-01-01T17:15:00;9.30;99.90
51637;DHT22;37713;53.254;6.460;2023-01-01T17:17:26;9.30;99.90
51637;DHT22;37713;53.254;6.460;2023-01-01T17:19:53;9.30;99.90
51637;DHT22;37713;53.254;6.460;2023-01-01T17:22:19;9.30;99.90
51637;DHT22;37713;53.254;6.460;2023-01-01T17:24:46;9.30;99.90
51637;DHT22;37713;53.254;6.460;2023-01-01T17:27:12;9.30;99.90
51637;DHT22;37713;53.254;6.460;2023-01-01T17:29:38;9.30;99.90
51637;DHT22;37713;53.254;6.460;2023-01-01T17:32:08;9.40;99.90
51637;DHT22;37713;53.254;6.460;2023-01-01T17:34:34;9.40;99.90
51637;DHT22;37713;53.254;6.460;2023-01-01T17:37:01;9.40;99.90
51637;DHT22;37713;53.254;6.460;2023-01-01T17:39:27;9.40;99.90
51637;DHT22;37713;53.254;6.460;2023-01-01T17:41:52;9.40;99.90
51637;DHT22;37713;53.254;6.460;2023-01-01T17:44:19;9.40;99.90
51637;DHT22;37713;53.254;6.460;2023-01-01T17:46:45;9.40;99.90
51637;DHT22;37713;53.254;6.460;2023-01-01T17:49:11;9.50;99.90
51637;DHT22;37713;53.254;6.460;2023-01-01T17:51:36;9.50;99.90
51637;DHT22;37713;53.254;6.460;2023-01-01T17:54:04;9.50;99.90
51637;DHT22;37713;53.254;6.460;2023-01-01T17:56:34;9.50;99.90
51637;DHT22;37713;53.254;6.460;2023-01-01T17:59:00;9.50;99.90
51637;DHT22;37713;53.254;6.460;2023-01-01T18:01:31;9.50;99.90
51637;DHT22;37713;53.254;6.460;2023-01-01T18:04:05;9.50;99.90
51637;DHT22;37713;53.254;6.460;2023-01-01T18:06:32;9.50;99.90
51637;DHT22;37713;53.254;6.460;2023-01-01T18:09:04;9.40;99.90
51637;DHT22;37713;53.254;6.460;2023-01-01T18:11:32;9.40;99.90
51637;DHT22;37713;53.254;6.460;2023-01-01T18:14:02;9.50;99.90
51637;DHT22;37713;53.254;6.460;2023-01-01T18:16:30;9.50;99.90
51637;DHT22;37713;53.254;6.460;2023-01-01T18:18:56;9.50;99.90
51637;DHT22;37713;53.254;6.460;2023-01-01T18:21:26;9.50;99.90
51637;DHT22;37713;53.254;6.460;2023-01-01T18:23:54;9.50;99.90
51637;DHT22;37713;53.254;6.460;2023-01-01T18:26:22;9.50;99.90